sensor_id;sensor_type;location;lat;lon;timestamp;P1;durP1;ratioP1;P2;durP2;ratioP2
55913;SDS011;58179;48.776;9.124;2024-03-08T00:01:30;204.55;;;52.65;;
55913;SDS011;58179;48.776;9.124;2024-03-08T00:03:57;158.90;;;46.22;;
55913;SDS011;58179;48.776;9.124;2024-03-08T00:06:23;175.02;;;50.67;;
55913;SDS011;58179;48.776;9.124;2024-03-08T00:08:49;196.07;;;53.07;;
55913;SDS011;58179;48.776;9.124;2024-03-08T00:11:16;173.75;;;48.28;;
55913;SDS011;58179;48.776;9.124;2024-03-08T00:13:43;169.45;;;46.75;;
55913;SDS011;58179;48.776;9.124;2024-03-08T00:16:10;211.88;;;55.50;;
55913;SDS011;58179;48.776;9.124;2024-03-08T00:18:37;244.02;;;61.38;;
55913;SDS011;58179;48.776;9.124;2024-03-08T00:21:03;186.60;;;51.17;;
55913;SDS011;58179;48.776;9.124;2024-03-08T00:23:29;164.27;;;45.58;;
55913;SDS011;58179;48.776;9.124;2024-03-08T00:25:56;175.82;;;48.47;;
55913;SDS011;58179;48.776;9.124;2024-03-08T00:28:23;195.67;;;52.23;;
55913;SDS011;58179;48.776;9.124;2024-03-08T00:30:51;199.48;;;52.45;;
55913;SDS011;58179;48.776;9.124;2024-03-08T00:33:17;241.13;;;60.88;;
55913;SDS011;58179;48.776;9.124;2024-03-08T00:35:43;182.32;;;50.13;;
55913;SDS011;58179;48.776;9.124;2024-03-08T00:38:10;203.20;;;52.40;;
55913;SDS011;58179;48.776;9.124;2024-03-08T00:40:36;208.50;;;55.38;;
55913;SDS011;58179;48.776;9.124;2024-03-08T00:43:02;210.73;;;56.85;;
55913;SDS011;58179;48.776;9.124;2024-03-08T00:45:29;189.10;;;51.50;;
55913;SDS011;58179;48.776;9.124;2024-03-08T00:47:57;185.18;;;47.10;;
55913;SDS011;58179;48.776;9.124;2024-03-08T00:50:23;207.35;;;52.30;;
55913;SDS011;58179;48.776;9.124;2024-03-08T00:52:49;211.32;;;57.92;;
55913;SDS011;58179;48.776;9.124;2024-03-08T00:55:15;162.55;;;45.85;;
55913;SDS011;58179;48.776;9.124;2024-03-08T00:57:42;232.65;;;59.92;;
55913;SDS011;58179;48.776;9.124;2024-03-08T01:00:08;232.02;;;57.47;;
55913;SDS011;58179;48.776;9.124;2024-03-08T01:02:37;201.53;;;51.77;;
55913;SDS011;58179;48.776;9.124;2024-03-08T01:05:05;224.30;;;58.65;;
55913;SDS011;58179;48.776;9.124;2024-03-08T01:07:34;240.32;;;60.45;;
55913;SDS011;58179;48.776;9.124;2024-03-08T01:10:00;238.48;;;61.47;;
55913;SDS011;58179;48.776;9.124;2024-03-08T01:12:26;223.80;;;56.72;;
55913;SDS011;58179;48.776;9.124;2024-03-08T01:14:53;225.48;;;57.45;;
55913;SDS011;58179;48.776;9.124;2024-03-08T01:17:19;242.07;;;62.50;;
55913;SDS011;58179;48.776;9.124;2024-03-08T01:19:45;211.48;;;55.97;;
55913;SDS011;58179;48.776;9.124;2024-03-08T01:22:13;196.10;;;56.38;;
55913;SDS011;58179;48.776;9.124;2024-03-08T01:24:39;226.90;;;58.85;;
55913;SDS011;58179;48.776;9.124;2024-03-08T01:27:05;209.77;;;56.92;;
55913;SDS011;58179;48.776;9.124;2024-03-08T01:29:32;236.65;;;60.22;;
55913;SDS011;58179;48.776;9.124;2024-03-08T01:31:59;226.57;;;59.97;;
55913;SDS011;58179;48.776;9.124;2024-03-08T01:34:26;188.65;;;53.83;;
55913;SDS011;58179;48.776;9.124;2024-03-08T01:36:53;219.43;;;58.15;;
55913;SDS011;58179;48.776;9.124;2024-03-08T01:39:24;221.35;;;60.63;;
55913;SDS011;58179;48.776;9.124;2024-03-08T01:41:50;231.10;;;62.97;;
55913;SDS011;58179;48.776;9.124;2024-03-08T01:44:16;230.57;;;62.25;;
55913;SDS011;58179;48.776;9.124;2024-03-08T01:46:43;159.32;;;49.90;;
55913;SDS011;58179;48.776;9.124;2024-03-08T01:49:10;192.75;;;53.65;;
55913;SDS011;58179;48.776;9.124;2024-03-08T01:51:37;158.45;;;48.40;;
55913;SDS011;58179;48.776;9.124;2024-03-08T01:54:05;161.98;;;45.50;;
55913;SDS011;58179;48.776;9.124;2024-03-08T01:56:36;170.67;;;47.50;;
55913;SDS011;58179;48.776;9.124;2024-03-08T01:59:03;243.48;;;64.88;;
55913;SDS011;58179;48.776;9.124;2024-03-08T02:01:32;217.80;;;62.38;;
55913;SDS011;58179;48.776;9.124;2024-03-08T02:03:59;191.77;;;52.23;;
55913;SDS011;58179;48.776;9.124;2024-03-08T02:06:25;213.57;;;56.25;;
55913;SDS011;58179;48.776;9.124;2024-03-08T02:08:51;236.00;;;66.05;;
55913;SDS011;58179;48.776;9.124;2024-03-08T02:11:18;196.18;;;52.33;;
55913;SDS011;58179;48.776;9.124;2024-03-08T02:13:47;193.45;;;51.35;;
55913;SDS011;58179;48.776;9.124;2024-03-08T02:16:19;171.82;;;52.88;;
55913;SDS011;58179;48.776;9.124;2024-03-08T02:18:46;195.32;;;50.80;;
55913;SDS011;58179;48.776;9.124;2024-03-08T02:21:13;215.38;;;58.95;;
55913;SDS011;58179;48.776;9.124;2024-03-08T02:23:46;213.48;;;59.83;;
55913;SDS011;58179;48.776;9.124;2024-03-08T02:26:12;178.48;;;47.55;;
55913;SDS011;58179;48.776;9.124;2024-03-08T02:28:38;209.98;;;57.15;;
55913;SDS011;58179;48.776;9.124;2024-03-08T02:31:08;230.18;;;66.20;;
55913;SDS011;58179;48.776;9.124;2024-03-08T02:33:34;196.40;;;54.42;;
55913;SDS011;58179;48.776;9.124;2024-03-08T02:36:00;185.95;;;53.72;;
55913;SDS011;58179;48.776;9.124;2024-03-08T02:38:28;226.55;;;57.38;;
55913;SDS011;58179;48.776;9.124;2024-03-08T02:40:54;237.38;;;62.30;;
55913;SDS011;58179;48.776;9.124;2024-03-08T02:43:20;239.93;;;64.18;;
55913;SDS011;58179;48.776;9.124;2024-03-08T02:45:47;227.48;;;52.75;;
55913;SDS011;58179;48.776;9.124;2024-03-08T02:48:14;188.73;;;53.03;;
55913;SDS011;58179;48.776;9.124;2024-03-08T02:50:43;228.40;;;61.20;;
55913;SDS011;58179;48.776;9.124;2024-03-08T02:53:10;212.82;;;56.83;;
55913;SDS011;58179;48.776;9.124;2024-03-08T02:55:38;211.10;;;60.42;;
55913;SDS011;58179;48.776;9.124;2024-03-08T02:58:05;222.65;;;55.00;;
55913;SDS011;58179;48.776;9.124;2024-03-08T03:00:34;246.00;;;66.60;;
55913;SDS011;58179;48.776;9.124;2024-03-08T03:03:01;234.13;;;62.00;;
55913;SDS011;58179;48.776;9.124;2024-03-08T03:05:28;238.75;;;60.53;;
55913;SDS011;58179;48.776;9.124;2024-03-08T03:07:57;242.90;;;67.13;;
55913;SDS011;58179;48.776;9.124;2024-03-08T03:10:23;215.55;;;54.90;;
55913;SDS011;58179;48.776;9.124;2024-03-08T03:12:52;249.98;;;67.50;;
55913;SDS011;58179;48.776;9.124;2024-03-08T03:15:18;242.20;;;60.15;;
55913;SDS011;58179;48.776;9.124;2024-03-08T03:17:45;253.75;;;64.25;;
55913;SDS011;58179;48.776;9.124;2024-03-08T03:20:12;213.23;;;53.30;;
55913;SDS011;58179;48.776;9.124;2024-03-08T03:22:39;229.40;;;59.67;;
55913;SDS011;58179;48.776;9.124;2024-03-08T03:25:06;231.75;;;66.03;;
55913;SDS011;58179;48.776;9.124;2024-03-08T03:27:34;192.57;;;53.13;;
55913;SDS011;58179;48.776;9.124;2024-03-08T03:30:03;243.55;;;68.63;;
55913;SDS011;58179;48.776;9.124;2024-03-08T03:32:51;243.82;;;61.55;;
55913;SDS011;58179;48.776;9.124;2024-03-08T03:35:17;206.23;;;59.55;;
55913;SDS011;58179;48.776;9.124;2024-03-08T03:37:45;223.35;;;55.13;;
55913;SDS011;58179;48.776;9.124;2024-03-08T03:40:26;193.55;;;58.33;;
55913;SDS011;58179;48.776;9.124;2024-03-08T03:42:52;219.43;;;55.33;;
55913;SDS011;58179;48.776;9.124;2024-03-08T03:45:20;223.60;;;63.83;;
55913;SDS011;58179;48.776;9.124;2024-03-08T03:47:46;234.40;;;57.25;;
55913;SDS011;58179;48.776;9.124;2024-03-08T03:50:12;246.95;;;65.75;;
55913;SDS011;58179;48.776;9.124;2024-03-08T03:52:38;237.25;;;61.72;;
55913;SDS011;58179;48.776;9.124;2024-03-08T03:55:04;201.88;;;57.10;;
55913;SDS011;58179;48.776;9.124;2024-03-08T03:57:31;234.33;;;58.03;;
55913;SDS011;58179;48.776;9.124;2024-03-08T03:59:58;209.05;;;57.08;;
55913;SDS011;58179;48.776;9.124;2024-03-08T04:02:25;226.40;;;60.83;;
55913;SDS011;58179;48.776;9.124;2024-03-08T04:04:52;246.77;;;64.53;;
55913;SDS011;58179;48.776;9.124;2024-03-08T04:07:19;211.75;;;61.80;;
55913;SDS011;58179;48.776;9.124;2024-03-08T04:09:45;218.63;;;56.20;;
55913;SDS011;58179;48.776;9.124;2024-03-08T04:12:12;222.85;;;60.08;;
55913;SDS011;58179;48.776;9.124;2024-03-08T04:14:40;219.90;;;57.15;;
55913;SDS011;58179;48.776;9.124;2024-03-08T04:17:07;245.73;;;65.03;;
55913;SDS011;58179;48.776;9.124;2024-03-08T04:19:35;220.63;;;59.53;;
55913;SDS011;58179;48.776;9.124;2024-03-08T04:22:01;222.40;;;59.50;;
55913;SDS011;58179;48.776;9.124;2024-03-08T04:24:28;186.48;;;50.72;;
55913;SDS011;58179;48.776;9.124;2024-03-08T04:26:55;230.80;;;61.53;;
55913;SDS011;58179;48.776;9.124;2024-03-08T04:29:22;209.30;;;60.60;;
55913;SDS011;58179;48.776;9.124;2024-03-08T04:31:48;226.77;;;63.55;;
55913;SDS011;58179;48.776;9.124;2024-03-08T04:34:19;204.73;;;52.50;;
55913;SDS011;58179;48.776;9.124;2024-03-08T04:36:46;237.88;;;60.60;;
55913;SDS011;58179;48.776;9.124;2024-03-08T04:39:13;242.20;;;62.25;;
55913;SDS011;58179;48.776;9.124;2024-03-08T04:41:40;257.23;;;67.63;;
55913;SDS011;58179;48.776;9.124;2024-03-08T04:44:08;218.93;;;58.67;;
55913;SDS011;58179;48.776;9.124;2024-03-08T04:46:35;234.65;;;61.35;;
55913;SDS011;58179;48.776;9.124;2024-03-08T04:49:01;233.70;;;59.63;;
55913;SDS011;58179;48.776;9.124;2024-03-08T04:51:27;209.27;;;54.72;;
55913;SDS011;58179;48.776;9.124;2024-03-08T04:53:55;252.38;;;62.50;;
55913;SDS011;58179;48.776;9.124;2024-03-08T04:56:22;234.83;;;60.73;;
55913;SDS011;58179;48.776;9.124;2024-03-08T04:58:48;227.90;;;58.53;;
55913;SDS011;58179;48.776;9.124;2024-03-08T05:01:14;232.52;;;61.72;;
55913;SDS011;58179;48.776;9.124;2024-03-08T05:03:40;208.45;;;55.05;;
55913;SDS011;58179;48.776;9.124;2024-03-08T05:06:07;249.32;;;63.45;;
55913;SDS011;58179;48.776;9.124;2024-03-08T05:08:33;227.17;;;61.57;;
55913;SDS011;58179;48.776;9.124;2024-03-08T05:11:01;268.60;;;66.15;;
55913;SDS011;58179;48.776;9.124;2024-03-08T05:13:28;205.30;;;54.67;;
55913;SDS011;58179;48.776;9.124;2024-03-08T05:15:55;205.15;;;55.60;;
55913;SDS011;58179;48.776;9.124;2024-03-08T05:18:23;184.90;;;52.30;;
55913;SDS011;58179;48.776;9.124;2024-03-08T05:20:49;203.35;;;55.75;;
55913;SDS011;58179;48.776;9.124;2024-03-08T05:23:16;238.27;;;61.45;;
55913;SDS011;58179;48.776;9.124;2024-03-08T05:25:44;192.63;;;49.92;;
55913;SDS011;58179;48.776;9.124;2024-03-08T05:28:13;246.20;;;64.38;;
55913;SDS011;58179;48.776;9.124;2024-03-08T05:30:39;227.57;;;58.97;;
55913;SDS011;58179;48.776;9.124;2024-03-08T05:33:05;228.70;;;62.33;;
55913;SDS011;58179;48.776;9.124;2024-03-08T05:35:35;223.05;;;59.97;;
55913;SDS011;58179;48.776;9.124;2024-03-08T05:38:01;223.95;;;57.67;;
55913;SDS011;58179;48.776;9.124;2024-03-08T05:40:27;245.07;;;65.63;;
55913;SDS011;58179;48.776;9.124;2024-03-08T05:42:56;233.15;;;62.63;;
55913;SDS011;58179;48.776;9.124;2024-03-08T05:45:25;268.52;;;73.05;;
55913;SDS011;58179;48.776;9.124;2024-03-08T05:47:51;220.15;;;56.13;;
55913;SDS011;58179;48.776;9.124;2024-03-08T05:50:17;264.90;;;67.45;;
55913;SDS011;58179;48.776;9.124;2024-03-08T05:52:44;243.73;;;63.67;;
55913;SDS011;58179;48.776;9.124;2024-03-08T05:55:12;233.10;;;65.70;;
55913;SDS011;58179;48.776;9.124;2024-03-08T05:57:39;228.05;;;63.10;;
55913;SDS011;58179;48.776;9.124;2024-03-08T06:00:06;239.35;;;61.92;;
55913;SDS011;58179;48.776;9.124;2024-03-08T06:02:34;228.80;;;58.63;;
55913;SDS011;58179;48.776;9.124;2024-03-08T06:05:06;230.03;;;61.43;;
55913;SDS011;58179;48.776;9.124;2024-03-08T06:07:33;254.65;;;68.22;;
55913;SDS011;58179;48.776;9.124;2024-03-08T06:09:59;209.70;;;62.00;;
55913;SDS011;58179;48.776;9.124;2024-03-08T06:12:25;241.68;;;62.30;;
55913;SDS011;58179;48.776;9.124;2024-03-08T06:14:54;240.68;;;63.65;;
55913;SDS011;58179;48.776;9.124;2024-03-08T06:17:20;290.25;;;73.32;;
55913;SDS011;58179;48.776;9.124;2024-03-08T06:19:51;219.97;;;59.23;;
55913;SDS011;58179;48.776;9.124;2024-03-08T06:22:19;248.75;;;69.03;;
55913;SDS011;58179;48.776;9.124;2024-03-08T06:24:45;248.43;;;63.03;;
55913;SDS011;58179;48.776;9.124;2024-03-08T06:27:12;244.60;;;65.15;;
55913;SDS011;58179;48.776;9.124;2024-03-08T06:29:39;234.50;;;62.67;;
55913;SDS011;58179;48.776;9.124;2024-03-08T06:32:05;265.85;;;65.75;;
55913;SDS011;58179;48.776;9.124;2024-03-08T06:34:32;250.00;;;61.63;;
55913;SDS011;58179;48.776;9.124;2024-03-08T06:37:00;230.00;;;58.08;;
55913;SDS011;58179;48.776;9.124;2024-03-08T06:39:27;271.38;;;64.47;;
55913;SDS011;58179;48.776;9.124;2024-03-08T06:41:56;283.93;;;65.97;;
55913;SDS011;58179;48.776;9.124;2024-03-08T06:44:23;260.95;;;63.88;;
55913;SDS011;58179;48.776;9.124;2024-03-08T06:46:49;250.98;;;62.67;;
55913;SDS011;58179;48.776;9.124;2024-03-08T06:49:15;258.23;;;61.97;;
55913;SDS011;58179;48.776;9.124;2024-03-08T06:51:41;271.50;;;62.78;;
55913;SDS011;58179;48.776;9.124;2024-03-08T06:54:09;270.80;;;66.78;;
55913;SDS011;58179;48.776;9.124;2024-03-08T06:56:35;291.40;;;67.03;;
55913;SDS011;58179;48.776;9.124;2024-03-08T06:59:01;273.67;;;62.03;;
55913;SDS011;58179;48.776;9.124;2024-03-08T07:01:31;261.17;;;61.53;;
55913;SDS011;58179;48.776;9.124;2024-03-08T07:04:01;273.77;;;65.00;;
55913;SDS011;58179;48.776;9.124;2024-03-08T07:06:30;266.55;;;62.28;;
55913;SDS011;58179;48.776;9.124;2024-03-08T07:08:58;295.50;;;67.57;;
55913;SDS011;58179;48.776;9.124;2024-03-08T07:11:26;253.80;;;58.97;;
55913;SDS011;58179;48.776;9.124;2024-03-08T07:13:52;229.30;;;58.95;;
55913;SDS011;58179;48.776;9.124;2024-03-08T07:16:19;256.37;;;60.73;;
55913;SDS011;58179;48.776;9.124;2024-03-08T07:18:46;234.77;;;57.10;;
55913;SDS011;58179;48.776;9.124;2024-03-08T07:21:12;244.55;;;58.55;;
55913;SDS011;58179;48.776;9.124;2024-03-08T07:23:38;229.68;;;56.50;;
55913;SDS011;58179;48.776;9.124;2024-03-08T07:26:14;234.40;;;56.50;;
55913;SDS011;58179;48.776;9.124;2024-03-08T07:28:42;242.73;;;58.08;;
55913;SDS011;58179;48.776;9.124;2024-03-08T07:31:10;249.15;;;58.60;;
55913;SDS011;58179;48.776;9.124;2024-03-08T07:33:37;234.32;;;59.08;;
55913;SDS011;58179;48.776;9.124;2024-03-08T07:36:03;255.20;;;60.70;;
55913;SDS011;58179;48.776;9.124;2024-03-08T07:38:29;214.27;;;53.47;;
55913;SDS011;58179;48.776;9.124;2024-03-08T07:40:56;193.00;;;49.70;;
55913;SDS011;58179;48.776;9.124;2024-03-08T07:43:22;197.07;;;49.55;;
55913;SDS011;58179;48.776;9.124;2024-03-08T07:45:49;171.93;;;45.83;;
55913;SDS011;58179;48.776;9.124;2024-03-08T07:48:18;198.18;;;50.85;;
55913;SDS011;58179;48.776;9.124;2024-03-08T07:50:44;228.20;;;57.35;;
55913;SDS011;58179;48.776;9.124;2024-03-08T07:53:11;211.60;;;52.22;;
55913;SDS011;58179;48.776;9.124;2024-03-08T07:55:37;211.13;;;53.80;;
55913;SDS011;58179;48.776;9.124;2024-03-08T07:58:04;209.95;;;55.65;;
55913;SDS011;58179;48.776;9.124;2024-03-08T08:00:31;181.98;;;49.13;;
55913;SDS011;58179;48.776;9.124;2024-03-08T08:02:58;200.27;;;53.33;;
55913;SDS011;58179;48.776;9.124;2024-03-08T08:05:26;168.35;;;47.75;;
55913;SDS011;58179;48.776;9.124;2024-03-08T08:07:52;204.17;;;51.70;;
55913;SDS011;58179;48.776;9.124;2024-03-08T08:10:18;163.63;;;46.45;;
55913;SDS011;58179;48.776;9.124;2024-03-08T08:12:47;210.52;;;51.25;;
55913;SDS011;58179;48.776;9.124;2024-03-08T08:15:14;163.25;;;45.60;;
55913;SDS011;58179;48.776;9.124;2024-03-08T08:17:41;156.02;;;45.10;;
55913;SDS011;58179;48.776;9.124;2024-03-08T08:20:09;166.13;;;46.67;;
55913;SDS011;58179;48.776;9.124;2024-03-08T08:22:36;171.53;;;48.07;;
55913;SDS011;58179;48.776;9.124;2024-03-08T08:25:04;145.00;;;43.60;;
55913;SDS011;58179;48.776;9.124;2024-03-08T08:27:30;147.07;;;45.92;;
55913;SDS011;58179;48.776;9.124;2024-03-08T08:29:56;162.80;;;45.85;;
55913;SDS011;58179;48.776;9.124;2024-03-08T08:32:22;148.57;;;43.53;;
55913;SDS011;58179;48.776;9.124;2024-03-08T08:34:49;147.85;;;45.67;;
55913;SDS011;58179;48.776;9.124;2024-03-08T08:37:16;117.03;;;38.42;;
55913;SDS011;58179;48.776;9.124;2024-03-08T08:39:43;148.57;;;44.90;;
55913;SDS011;58179;48.776;9.124;2024-03-08T08:42:09;129.17;;;43.17;;
55913;SDS011;58179;48.776;9.124;2024-03-08T08:44:36;115.22;;;39.08;;
55913;SDS011;58179;48.776;9.124;2024-03-08T08:47:02;118.20;;;39.88;;
55913;SDS011;58179;48.776;9.124;2024-03-08T08:49:28;132.18;;;41.47;;
55913;SDS011;58179;48.776;9.124;2024-03-08T08:51:55;111.32;;;37.55;;
55913;SDS011;58179;48.776;9.124;2024-03-08T08:54:24;102.97;;;36.80;;
55913;SDS011;58179;48.776;9.124;2024-03-08T08:56:52;115.43;;;40.87;;
55913;SDS011;58179;48.776;9.124;2024-03-08T08:59:18;112.28;;;40.17;;
55913;SDS011;58179;48.776;9.124;2024-03-08T09:01:44;113.15;;;39.83;;
55913;SDS011;58179;48.776;9.124;2024-03-08T09:04:12;91.47;;;35.00;;
55913;SDS011;58179;48.776;9.124;2024-03-08T09:06:38;96.67;;;35.50;;
55913;SDS011;58179;48.776;9.124;2024-03-08T09:09:08;104.10;;;36.92;;
55913;SDS011;58179;48.776;9.124;2024-03-08T09:11:37;97.23;;;36.03;;
55913;SDS011;58179;48.776;9.124;2024-03-08T09:14:06;91.28;;;34.97;;
55913;SDS011;58179;48.776;9.124;2024-03-08T09:16:32;100.03;;;37.65;;
55913;SDS011;58179;48.776;9.124;2024-03-08T09:18:58;81.50;;;31.35;;
55913;SDS011;58179;48.776;9.124;2024-03-08T09:21:25;84.13;;;32.83;;
55913;SDS011;58179;48.776;9.124;2024-03-08T09:23:52;89.70;;;35.53;;
55913;SDS011;58179;48.776;9.124;2024-03-08T09:26:18;75.63;;;31.30;;
55913;SDS011;58179;48.776;9.124;2024-03-08T09:28:46;72.13;;;29.43;;
55913;SDS011;58179;48.776;9.124;2024-03-08T09:31:12;80.20;;;33.83;;
55913;SDS011;58179;48.776;9.124;2024-03-08T09:33:38;75.85;;;32.80;;
55913;SDS011;58179;48.776;9.124;2024-03-08T09:36:05;80.82;;;32.95;;
55913;SDS011;58179;48.776;9.124;2024-03-08T09:38:32;78.10;;;33.28;;
55913;SDS011;58179;48.776;9.124;2024-03-08T09:41:01;61.40;;;28.60;;
55913;SDS011;58179;48.776;9.124;2024-03-08T09:43:29;57.50;;;26.25;;
55913;SDS011;58179;48.776;9.124;2024-03-08T09:45:57;67.25;;;30.08;;
55913;SDS011;58179;48.776;9.124;2024-03-08T09:48:23;63.25;;;28.52;;
55913;SDS011;58179;48.776;9.124;2024-03-08T09:50:51;55.13;;;25.75;;
55913;SDS011;58179;48.776;9.124;2024-03-08T09:53:19;57.60;;;26.83;;
55913;SDS011;58179;48.776;9.124;2024-03-08T09:55:47;54.40;;;27.08;;
55913;SDS011;58179;48.776;9.124;2024-03-08T09:58:14;62.33;;;28.08;;
55913;SDS011;58179;48.776;9.124;2024-03-08T10:00:46;67.28;;;29.10;;
55913;SDS011;58179;48.776;9.124;2024-03-08T10:03:13;56.85;;;26.58;;
55913;SDS011;58179;48.776;9.124;2024-03-08T10:05:40;59.55;;;28.83;;
55913;SDS011;58179;48.776;9.124;2024-03-08T10:08:08;50.95;;;24.83;;
55913;SDS011;58179;48.776;9.124;2024-03-08T10:10:34;49.33;;;23.38;;
55913;SDS011;58179;48.776;9.124;2024-03-08T10:13:00;47.75;;;23.42;;
55913;SDS011;58179;48.776;9.124;2024-03-08T10:15:27;52.30;;;26.30;;
55913;SDS011;58179;48.776;9.124;2024-03-08T10:17:58;50.00;;;24.13;;
55913;SDS011;58179;48.776;9.124;2024-03-08T10:20:25;53.40;;;24.27;;
55913;SDS011;58179;48.776;9.124;2024-03-08T10:22:52;50.10;;;25.40;;
55913;SDS011;58179;48.776;9.124;2024-03-08T10:25:18;42.60;;;22.48;;
55913;SDS011;58179;48.776;9.124;2024-03-08T10:27:45;45.30;;;23.02;;
55913;SDS011;58179;48.776;9.124;2024-03-08T10:30:13;45.83;;;24.23;;
55913;SDS011;58179;48.776;9.124;2024-03-08T10:32:41;44.92;;;22.75;;
55913;SDS011;58179;48.776;9.124;2024-03-08T10:35:07;43.90;;;22.85;;
55913;SDS011;58179;48.776;9.124;2024-03-08T10:37:35;46.05;;;24.35;;
55913;SDS011;58179;48.776;9.124;2024-03-08T10:40:09;48.83;;;23.27;;
55913;SDS011;58179;48.776;9.124;2024-03-08T10:42:41;44.40;;;24.08;;
55913;SDS011;58179;48.776;9.124;2024-03-08T10:45:19;40.70;;;22.35;;
55913;SDS011;58179;48.776;9.124;2024-03-08T10:47:58;46.53;;;23.73;;
55913;SDS011;58179;48.776;9.124;2024-03-08T10:50:32;46.38;;;22.27;;
55913;SDS011;58179;48.776;9.124;2024-03-08T10:53:01;40.25;;;21.67;;
55913;SDS011;58179;48.776;9.124;2024-03-08T10:55:31;41.75;;;22.55;;
55913;SDS011;58179;48.776;9.124;2024-03-08T10:58:01;44.13;;;23.67;;
55913;SDS011;58179;48.776;9.124;2024-03-08T11:00:28;37.20;;;20.27;;
55913;SDS011;58179;48.776;9.124;2024-03-08T11:02:56;35.78;;;19.52;;
55913;SDS011;58179;48.776;9.124;2024-03-08T11:05:32;34.95;;;19.20;;
55913;SDS011;58179;48.776;9.124;2024-03-08T11:08:05;37.60;;;18.75;;
55913;SDS011;58179;48.776;9.124;2024-03-08T11:10:46;35.38;;;20.50;;
55913;SDS011;58179;48.776;9.124;2024-03-08T11:15:57;35.90;;;20.67;;
55913;SDS011;58179;48.776;9.124;2024-03-08T11:18:25;38.55;;;20.92;;
55913;SDS011;58179;48.776;9.124;2024-03-08T11:20:53;34.10;;;19.40;;
55913;SDS011;58179;48.776;9.124;2024-03-08T11:23:22;31.23;;;18.17;;
55913;SDS011;58179;48.776;9.124;2024-03-08T11:25:51;29.15;;;17.38;;
55913;SDS011;58179;48.776;9.124;2024-03-08T11:28:18;32.95;;;18.85;;
55913;SDS011;58179;48.776;9.124;2024-03-08T11:30:46;34.85;;;20.10;;
55913;SDS011;58179;48.776;9.124;2024-03-08T11:33:37;36.88;;;19.95;;
55913;SDS011;58179;48.776;9.124;2024-03-08T11:36:10;32.33;;;18.42;;
55913;SDS011;58179;48.776;9.124;2024-03-08T11:38:41;30.45;;;17.50;;
55913;SDS011;58179;48.776;9.124;2024-03-08T11:41:14;31.35;;;18.88;;
55913;SDS011;58179;48.776;9.124;2024-03-08T11:43:43;26.10;;;15.52;;
55913;SDS011;58179;48.776;9.124;2024-03-08T11:46:09;22.53;;;13.67;;
55913;SDS011;58179;48.776;9.124;2024-03-08T11:48:40;25.50;;;16.33;;
55913;SDS011;58179;48.776;9.124;2024-03-08T11:51:08;26.00;;;15.63;;
55913;SDS011;58179;48.776;9.124;2024-03-08T11:53:36;24.73;;;15.43;;
55913;SDS011;58179;48.776;9.124;2024-03-08T11:56:06;25.23;;;15.60;;
55913;SDS011;58179;48.776;9.124;2024-03-08T11:58:32;26.42;;;15.48;;
55913;SDS011;58179;48.776;9.124;2024-03-08T12:01:02;25.88;;;15.95;;
55913;SDS011;58179;48.776;9.124;2024-03-08T12:03:30;25.52;;;15.38;;
55913;SDS011;58179;48.776;9.124;2024-03-08T12:06:00;25.70;;;15.63;;
55913;SDS011;58179;48.776;9.124;2024-03-08T12:08:27;27.13;;;15.88;;
55913;SDS011;58179;48.776;9.124;2024-03-08T12:10:53;27.75;;;16.02;;
55913;SDS011;58179;48.776;9.124;2024-03-08T12:13:24;25.55;;;15.23;;
55913;SDS011;58179;48.776;9.124;2024-03-08T12:15:50;24.27;;;13.30;;
55913;SDS011;58179;48.776;9.124;2024-03-08T12:18:17;27.85;;;15.98;;
55913;SDS011;58179;48.776;9.124;2024-03-08T12:20:43;25.15;;;15.57;;
55913;SDS011;58179;48.776;9.124;2024-03-08T12:23:16;21.17;;;13.10;;
55913;SDS011;58179;48.776;9.124;2024-03-08T12:25:42;24.73;;;14.85;;
55913;SDS011;58179;48.776;9.124;2024-03-08T12:28:09;18.17;;;11.68;;
55913;SDS011;58179;48.776;9.124;2024-03-08T12:30:37;18.60;;;11.93;;
55913;SDS011;58179;48.776;9.124;2024-03-08T12:33:13;24.40;;;14.38;;
55913;SDS011;58179;48.776;9.124;2024-03-08T12:35:39;19.13;;;12.73;;
55913;SDS011;58179;48.776;9.124;2024-03-08T12:38:07;21.33;;;12.23;;
55913;SDS011;58179;48.776;9.124;2024-03-08T12:40:34;21.70;;;13.50;;
55913;SDS011;58179;48.776;9.124;2024-03-08T12:43:05;25.00;;;14.83;;
55913;SDS011;58179;48.776;9.124;2024-03-08T12:45:31;16.85;;;11.25;;
55913;SDS011;58179;48.776;9.124;2024-03-08T12:47:58;24.75;;;14.82;;
55913;SDS011;58179;48.776;9.124;2024-03-08T12:50:24;20.67;;;13.70;;
55913;SDS011;58179;48.776;9.124;2024-03-08T12:52:51;22.92;;;14.32;;
55913;SDS011;58179;48.776;9.124;2024-03-08T12:55:20;20.75;;;12.43;;
55913;SDS011;58179;48.776;9.124;2024-03-08T12:57:48;20.25;;;12.90;;
55913;SDS011;58179;48.776;9.124;2024-03-08T13:00:14;22.55;;;14.07;;
55913;SDS011;58179;48.776;9.124;2024-03-08T13:02:44;21.95;;;13.80;;
55913;SDS011;58179;48.776;9.124;2024-03-08T13:05:10;18.30;;;12.13;;
55913;SDS011;58179;48.776;9.124;2024-03-08T13:07:39;16.35;;;10.77;;
55913;SDS011;58179;48.776;9.124;2024-03-08T13:10:06;17.83;;;11.25;;
55913;SDS011;58179;48.776;9.124;2024-03-08T13:12:34;17.15;;;10.80;;
55913;SDS011;58179;48.776;9.124;2024-03-08T13:15:04;15.77;;;10.50;;
55913;SDS011;58179;48.776;9.124;2024-03-08T13:17:30;16.48;;;10.60;;
55913;SDS011;58179;48.776;9.124;2024-03-08T13:19:57;24.33;;;14.40;;
55913;SDS011;58179;48.776;9.124;2024-03-08T13:22:23;18.75;;;12.35;;
55913;SDS011;58179;48.776;9.124;2024-03-08T13:24:50;18.02;;;12.07;;
55913;SDS011;58179;48.776;9.124;2024-03-08T13:27:17;22.73;;;14.02;;
55913;SDS011;58179;48.776;9.124;2024-03-08T13:29:50;20.05;;;12.85;;
55913;SDS011;58179;48.776;9.124;2024-03-08T13:32:17;22.33;;;12.88;;
55913;SDS011;58179;48.776;9.124;2024-03-08T13:34:45;20.95;;;13.13;;
55913;SDS011;58179;48.776;9.124;2024-03-08T13:37:19;18.38;;;12.35;;
55913;SDS011;58179;48.776;9.124;2024-03-08T13:39:45;20.90;;;12.47;;
55913;SDS011;58179;48.776;9.124;2024-03-08T13:42:11;19.45;;;12.40;;
55913;SDS011;58179;48.776;9.124;2024-03-08T13:44:39;21.60;;;12.85;;
55913;SDS011;58179;48.776;9.124;2024-03-08T13:47:09;19.80;;;12.23;;
55913;SDS011;58179;48.776;9.124;2024-03-08T13:49:38;20.05;;;12.95;;
55913;SDS011;58179;48.776;9.124;2024-03-08T13:52:04;18.52;;;12.23;;
55913;SDS011;58179;48.776;9.124;2024-03-08T13:54:33;22.63;;;13.88;;
55913;SDS011;58179;48.776;9.124;2024-03-08T13:57:00;24.50;;;14.15;;
55913;SDS011;58179;48.776;9.124;2024-03-08T13:59:28;22.55;;;12.93;;
55913;SDS011;58179;48.776;9.124;2024-03-08T14:01:55;27.60;;;14.73;;
55913;SDS011;58179;48.776;9.124;2024-03-08T14:04:22;28.17;;;15.82;;
55913;SDS011;58179;48.776;9.124;2024-03-08T14:06:51;22.88;;;13.52;;
55913;SDS011;58179;48.776;9.124;2024-03-08T14:09:21;26.73;;;14.88;;
55913;SDS011;58179;48.776;9.124;2024-03-08T14:11:49;22.20;;;13.98;;
55913;SDS011;58179;48.776;9.124;2024-03-08T14:14:18;17.38;;;10.70;;
55913;SDS011;58179;48.776;9.124;2024-03-08T14:16:46;18.30;;;11.43;;
55913;SDS011;58179;48.776;9.124;2024-03-08T14:19:13;26.95;;;15.23;;